createdAt,value
2023-03-12T00:01:20.561Z,100431.97
2023-03-12T00:03:48.623Z,100433.38
2023-03-12T00:06:16.222Z,100437.19
2023-03-12T00:08:43.053Z,100436.47
2023-03-12T00:11:12.075Z,100430.09
2023-03-12T00:13:39.272Z,100433.00
2023-03-12T00:16:11.765Z,100435.94
2023-03-12T00:18:38.870Z,100434.09
2023-03-12T00:21:06.458Z,100437.31
2023-03-12T00:23:33.103Z,100436.78
2023-03-12T00:26:03.304Z,100439.88
2023-03-12T00:28:30.570Z,100432.50
2023-03-12T00:30:58.491Z,100427.38
2023-03-12T00:33:26.454Z,100434.78
2023-03-12T00:35:53.739Z,100430.34
2023-03-12T00:38:20.521Z,100433.88
2023-03-12T00:40:47.408Z,100431.56
2023-03-12T00:43:14.618Z,100435.81
2023-03-12T00:45:41.277Z,100437.13
2023-03-12T00:48:07.875Z,100436.78
2023-03-12T00:50:34.470Z,100440.31
2023-03-12T00:53:01.093Z,100440.31
2023-03-12T00:55:27.653Z,100444.63
2023-03-12T00:57:54.198Z,100447.59
2023-03-12T01:00:21.829Z,100447.81
2023-03-12T01:02:48.435Z,100456.03
2023-03-12T01:05:16.576Z,100451.63
2023-03-12T01:07:43.548Z,100460.50
2023-03-12T01:10:13.298Z,100457.53
2023-03-12T01:12:39.880Z,100457.38
2023-03-12T01:15:07.096Z,100459.97
2023-03-12T01:17:33.731Z,100465.13
2023-03-12T01:20:00.398Z,100458.84
2023-03-12T01:22:26.993Z,100460.81
2023-03-12T01:24:53.608Z,100457.50
2023-03-12T01:27:20.535Z,100466.06
2023-03-12T01:29:47.130Z,100451.22
2023-03-12T01:32:13.879Z,100467.72
2023-03-12T01:34:40.540Z,100472.44
2023-03-12T01:37:07.871Z,100464.16
2023-03-12T01:39:34.739Z,100459.06
2023-03-12T01:42:01.994Z,100474.09
2023-03-12T01:44:29.545Z,100464.88
2023-03-12T01:46:56.229Z,100475.91
2023-03-12T01:49:27.257Z,100472.56
2023-03-12T01:52:09.628Z,100477.84
2023-03-12T01:54:53.413Z,100473.13
2023-03-12T01:57:24.543Z,100475.91
2023-03-12T02:00:04.630Z,100483.00
2023-03-12T02:02:31.412Z,100481.22
2023-03-12T02:05:43.542Z,100485.84
2023-03-12T02:08:11.664Z,100484.44
2023-03-12T02:10:38.377Z,100483.34
2023-03-12T02:13:05.659Z,100488.50
2023-03-12T02:15:33.815Z,100484.38
2023-03-12T02:18:03.136Z,100483.34
2023-03-12T02:20:59.020Z,100483.28
2023-03-12T02:23:43.254Z,100483.50
2023-03-12T02:26:11.793Z,100496.34
2023-03-12T02:28:44.121Z,100497.38
2023-03-12T02:31:13.174Z,100502.50
2023-03-12T02:33:39.894Z,100496.84
2023-03-12T02:36:06.669Z,100510.19
2023-03-12T02:38:43.476Z,100503.25
2023-03-12T02:41:24.232Z,100516.59
2023-03-12T02:44:18.197Z,100515.88
2023-03-12T02:46:47.953Z,100522.75
2023-03-12T02:49:16.523Z,100516.69
2023-03-12T02:51:44.700Z,100525.50
2023-03-12T02:54:13.655Z,100525.94
2023-03-12T02:56:40.606Z,100537.25
2023-03-12T02:59:08.959Z,100537.84
2023-03-12T03:01:36.379Z,100540.44
2023-03-12T03:04:05.051Z,100544.03
2023-03-12T03:06:32.621Z,100539.84
2023-03-12T03:08:59.625Z,100539.00
2023-03-12T03:11:26.315Z,100546.31
2023-03-12T03:13:54.002Z,100554.66
2023-03-12T03:16:21.212Z,100549.38
2023-03-12T03:18:48.048Z,100550.69
2023-03-12T03:21:16.723Z,100553.69
2023-03-12T03:23:45.278Z,100564.00
2023-03-12T03:26:12.123Z,100555.00
2023-03-12T03:28:38.849Z,100555.72
2023-03-12T03:31:06.489Z,100564.34
2023-03-12T03:33:35.567Z,100557.66
2023-03-12T03:36:02.634Z,100554.66
2023-03-12T03:38:30.738Z,100568.94
2023-03-12T03:40:57.954Z,100575.88
2023-03-12T03:43:25.276Z,100570.53
2023-03-12T03:46:03.097Z,100568.72
2023-03-12T03:48:30.636Z,100558.25
2023-03-12T03:51:02.269Z,100566.00
2023-03-12T03:53:29.042Z,100571.25
2023-03-12T03:55:55.673Z,100572.00
2023-03-12T03:58:22.719Z,100565.59
2023-03-12T04:00:49.377Z,100572.28
2023-03-12T04:03:17.127Z,100575.81
2023-03-12T04:05:46.698Z,100578.94
2023-03-12T04:08:13.910Z,100579.50
2023-03-12T04:10:41.240Z,100583.13
2023-03-12T04:13:07.912Z,100585.13
2023-03-12T04:15:34.644Z,100586.78
2023-03-12T04:18:01.398Z,100585.38
2023-03-12T04:20:28.022Z,100592.41
2023-03-12T04:22:54.663Z,100594.19
2023-03-12T04:25:21.276Z,100590.59
2023-03-12T04:27:47.896Z,100590.44
2023-03-12T04:30:14.862Z,100594.78
2023-03-12T04:32:41.528Z,100592.72
2023-03-12T04:35:08.421Z,100600.66
2023-03-12T04:37:35.045Z,100596.31
2023-03-12T04:40:05.040Z,100598.78
2023-03-12T04:42:31.839Z,100600.94
2023-03-12T04:44:58.755Z,100594.19
2023-03-12T04:47:27.413Z,100598.50
2023-03-12T04:49:54.079Z,100592.63
2023-03-12T04:52:20.696Z,100604.88
2023-03-12T04:54:48.142Z,100605.06
2023-03-12T04:57:14.840Z,100603.56
2023-03-12T04:59:42.017Z,100601.03
2023-03-12T05:02:08.669Z,100597.75
2023-03-12T05:04:35.267Z,100604.72
2023-03-12T05:07:01.967Z,100600.56
2023-03-12T05:09:28.625Z,100615.22
2023-03-12T05:11:55.642Z,100618.75
2023-03-12T05:14:22.391Z,100614.56
2023-03-12T05:16:49.139Z,100619.78
2023-03-12T05:19:16.118Z,100616.38
2023-03-12T05:21:43.004Z,100623.28
2023-03-12T05:24:10.677Z,100624.22
2023-03-12T05:26:38.896Z,100618.28
2023-03-12T05:29:06.237Z,100619.97
2023-03-12T05:31:35.356Z,100614.03
2023-03-12T05:34:05.734Z,100615.75
2023-03-12T05:36:32.340Z,100605.53
2023-03-12T05:38:59.050Z,100612.41
2023-03-12T05:41:28.143Z,100609.84
2023-03-12T05:43:56.424Z,100609.88
2023-03-12T05:46:24.919Z,100607.31
2023-03-12T05:48:52.212Z,100608.16
2023-03-12T05:51:19.310Z,100609.81
2023-03-12T05:53:46.060Z,100604.72
2023-03-12T05:56:15.255Z,100607.25
2023-03-12T05:58:42.396Z,100608.09
2023-03-12T06:01:18.141Z,100612.38
2023-03-12T06:03:45.103Z,100614.00
2023-03-12T06:06:12.283Z,100624.19
2023-03-12T06:08:39.615Z,100626.59
2023-03-12T06:11:06.319Z,100627.38
2023-03-12T06:13:32.906Z,100619.53
2023-03-12T06:16:26.495Z,100630.31
2023-03-12T06:18:55.419Z,100636.00
2023-03-12T06:21:25.037Z,100634.00
2023-03-12T06:23:52.491Z,100623.31
2023-03-12T06:26:21.165Z,100624.84
2023-03-12T06:28:48.868Z,100628.69
2023-03-12T06:31:16.194Z,100633.41
2023-03-12T06:33:42.967Z,100637.41
2023-03-12T06:36:11.409Z,100636.13
2023-03-12T06:38:38.943Z,100635.88
2023-03-12T06:41:08.544Z,100645.84
2023-03-12T06:43:36.717Z,100648.91
2023-03-12T06:46:04.670Z,100653.84
2023-03-12T06:48:36.895Z,100643.88
2023-03-12T06:51:04.716Z,100652.09
2023-03-12T06:53:31.954Z,100656.69
2023-03-12T06:55:58.627Z,100653.75
2023-03-12T06:58:25.287Z,100653.31
2023-03-12T07:00:52.856Z,100664.28
2023-03-12T07:03:19.610Z,100656.88
2023-03-12T07:05:48.188Z,100661.53
2023-03-12T07:08:15.760Z,100661.78
2023-03-12T07:10:43.040Z,100657.00
2023-03-12T07:13:10.149Z,100658.38
2023-03-12T07:15:37.150Z,100663.50
2023-03-12T07:18:09.089Z,100663.81
2023-03-12T07:20:40.903Z,100663.38
2023-03-12T07:23:08.359Z,100659.09
2023-03-12T07:25:37.523Z,100669.16
2023-03-12T07:28:04.830Z,100673.72
2023-03-12T07:30:33.587Z,100672.44
2023-03-12T07:33:04.249Z,100670.81
2023-03-12T07:35:31.572Z,100672.44
2023-03-12T07:37:59.243Z,100683.38
2023-03-12T07:40:26.291Z,100675.34
2023-03-12T07:42:54.400Z,100670.91
2023-03-12T07:45:21.496Z,100678.50
2023-03-12T07:47:48.232Z,100677.09
2023-03-12T07:50:16.041Z,100675.66
2023-03-12T07:52:42.849Z,100675.72
2023-03-12T07:55:10.356Z,100677.25
2023-03-12T07:57:38.505Z,100675.66
2023-03-12T08:00:07.708Z,100677.03
2023-03-12T08:02:34.960Z,100678.41
2023-03-12T08:05:01.952Z,100681.47
2023-03-12T08:07:32.560Z,100678.16
2023-03-12T08:10:00.238Z,100685.03
2023-03-12T08:12:27.993Z,100685.56
2023-03-12T08:14:55.307Z,100689.06
2023-03-12T08:17:21.994Z,100685.28
2023-03-12T08:19:48.932Z,100689.69
2023-03-12T08:22:16.020Z,100701.44
2023-03-12T08:24:43.028Z,100689.56
2023-03-12T08:27:12.114Z,100696.69
2023-03-12T08:29:39.758Z,100686.97
2023-03-12T08:32:07.161Z,100689.81
2023-03-12T08:34:35.092Z,100693.13
2023-03-12T08:37:03.017Z,100704.66
2023-03-12T08:39:29.978Z,100689.41
2023-03-12T08:41:56.739Z,100692.22
2023-03-12T08:44:23.645Z,100682.63
2023-03-12T08:46:53.583Z,100685.97
2023-03-12T08:49:20.955Z,100679.13
2023-03-12T08:51:47.753Z,100678.75
2023-03-12T08:54:14.450Z,100676.78
2023-03-12T08:56:43.879Z,100677.56
2023-03-12T08:59:11.638Z,100678.34
2023-03-12T09:01:38.525Z,100676.28
2023-03-12T09:04:06.228Z,100680.31
2023-03-12T09:06:35.360Z,100674.19
2023-03-12T09:09:06.419Z,100672.63
2023-03-12T09:11:34.135Z,100673.69
2023-03-12T09:14:49.831Z,100677.63
2023-03-12T09:16:49.010Z,100673.31
2023-03-12T09:19:15.921Z,100666.34
2023-03-12T09:21:42.519Z,100665.44
2023-03-12T09:24:10.374Z,100666.66
2023-03-12T09:26:37.123Z,100673.88
2023-03-12T09:29:03.757Z,100666.91
2023-03-12T09:31:30.502Z,100666.31
2023-03-12T09:33:57.193Z,100666.59
2023-03-12T09:36:23.820Z,100669.63
2023-03-12T09:38:50.455Z,100667.63
2023-03-12T09:41:23.991Z,100671.59
2023-03-12T09:44:20.988Z,100664.34
2023-03-12T09:46:52.432Z,100661.59
2023-03-12T09:49:37.798Z,100663.47
2023-03-12T09:52:18.224Z,100666.88
2023-03-12T09:54:54.755Z,100656.91
2023-03-12T09:57:25.154Z,100665.06
2023-03-12T09:59:52.543Z,100659.06
2023-03-12T10:02:43.083Z,100662.84
2023-03-12T10:05:12.971Z,100651.81
2023-03-12T10:07:55.896Z,100650.97
2023-03-12T10:10:31.426Z,100653.06
2023-03-12T10:13:17.181Z,100646.63
2023-03-12T10:16:15.986Z,100648.88
2023-03-12T10:18:54.863Z,100647.44
2023-03-12T10:21:47.543Z,100636.38
2023-03-12T10:24:25.224Z,100643.63
2023-03-12T10:26:55.514Z,100643.84
2023-03-12T10:29:26.809Z,100635.72
2023-03-12T10:32:13.672Z,100632.63
2023-03-12T10:35:32.383Z,100624.22
2023-03-12T10:38:03.799Z,100615.97
2023-03-12T10:40:35.893Z,100622.59
2023-03-12T10:43:04.165Z,100620.34
2023-03-12T10:45:35.303Z,100624.75
2023-03-12T10:48:17.949Z,100618.47
2023-03-12T10:50:59.773Z,100617.91
2023-03-12T10:53:32.639Z,100613.47
2023-03-12T10:56:07.795Z,100613.09
2023-03-12T10:58:38.358Z,100609.97
2023-03-12T11:01:15.893Z,100605.16
2023-03-12T11:03:44.373Z,100601.19
2023-03-12T11:06:22.042Z,100597.69
2023-03-12T11:09:21.323Z,100596.22
2023-03-12T11:11:50.589Z,100579.88
2023-03-12T11:14:26.458Z,100580.25
2023-03-12T11:16:56.574Z,100566.50
2023-03-12T11:19:33.004Z,100564.84
2023-03-12T11:22:05.836Z,100569.84
2023-03-12T11:24:32.629Z,100564.84
2023-03-12T11:27:25.878Z,100566.47
2023-03-12T11:29:54.290Z,100568.78
2023-03-12T11:32:41.882Z,100563.97
2023-03-12T11:35:14.542Z,100559.78
2023-03-12T11:37:49.827Z,100558.44
2023-03-12T11:40:47.612Z,100561.78
2023-03-12T11:43:40.037Z,100553.66
2023-03-12T11:46:35.044Z,100542.81
2023-03-12T11:49:13.645Z,100548.19
2023-03-12T11:52:23.886Z,100544.22
2023-03-12T11:55:01.302Z,100540.50
2023-03-12T11:57:38.126Z,100547.41
2023-03-12T12:00:13.623Z,100534.06
2023-03-12T12:02:49.383Z,100541.00
2023-03-12T12:05:53.723Z,100533.50
2023-03-12T12:08:54.694Z,100535.06
2023-03-12T12:11:47.558Z,100522.91
2023-03-12T12:14:20.120Z,100511.88
2023-03-12T12:16:55.658Z,100509.22
2023-03-12T12:20:01.488Z,100486.38
2023-03-12T12:22:42.936Z,100485.63
2023-03-12T12:25:42.030Z,100500.06
2023-03-12T12:28:24.002Z,100499.41
2023-03-12T12:31:02.416Z,100485.13
2023-03-12T12:33:55.154Z,100480.34
2023-03-12T12:36:24.436Z,100460.53
2023-03-12T12:38:55.192Z,100456.25
2023-03-12T12:41:25.885Z,100449.63
2023-03-12T12:44:04.069Z,100439.91
2023-03-12T12:46:35.974Z,100443.47
2023-03-12T12:49:11.058Z,100429.16
2023-03-12T12:51:47.116Z,100423.53
2023-03-12T12:54:16.844Z,100415.47
2023-03-12T12:56:56.488Z,100405.59
2023-03-12T13:00:11.326Z,100415.41
2023-03-12T13:02:41.819Z,100414.63
2023-03-12T13:05:45.100Z,100415.38
2023-03-12T13:08:40.471Z,100413.53
2023-03-12T13:11:28.823Z,100402.22
2023-03-12T13:13:58.425Z,100402.63
2023-03-12T13:16:39.795Z,100406.56
2023-03-12T13:19:24.027Z,100397.59
2023-03-12T13:22:47.863Z,100398.50
2023-03-12T13:25:20.117Z,100403.03
2023-03-12T13:27:46.769Z,100402.22
2023-03-12T13:30:50.161Z,100419.72
2023-03-12T13:33:21.664Z,100408.03
2023-03-12T13:36:10.328Z,100408.06
2023-03-12T13:38:53.066Z,100404.78
2023-03-12T13:41:50.859Z,100420.06
2023-03-12T13:44:23.440Z,100408.06
2023-03-12T13:47:04.166Z,100394.41
2023-03-12T13:49:43.598Z,100378.94
2023-03-12T13:52:31.115Z,100379.75
2023-03-12T13:54:57.780Z,100399.28
2023-03-12T13:57:41.294Z,100387.88
2023-03-12T14:00:21.754Z,100395.47
2023-03-12T14:03:25.006Z,100392.06
2023-03-12T14:05:51.775Z,100384.28
2023-03-12T14:08:35.290Z,100370.16
2023-03-12T14:11:36.296Z,100367.44
2023-03-12T14:14:08.829Z,100358.13
2023-03-12T14:16:49.574Z,100375.25
2023-03-12T14:19:24.204Z,100374.31
2023-03-12T14:21:52.709Z,100376.59
2023-03-12T14:24:22.061Z,100365.78
2023-03-12T14:26:49.528Z,100370.03
2023-03-12T14:29:29.880Z,100358.75
2023-03-12T14:32:02.357Z,100356.31
2023-03-12T14:34:38.576Z,100350.97
2023-03-12T14:37:05.955Z,100358.84
2023-03-12T14:39:42.065Z,100361.94
2023-03-12T14:42:10.357Z,100362.56
2023-03-12T14:44:39.668Z,100361.88
2023-03-12T14:47:12.149Z,100361.78
2023-03-12T14:49:41.917Z,100352.38
2023-03-12T14:52:12.184Z,100352.41
2023-03-12T14:54:39.724Z,100357.50
2023-03-12T14:57:13.204Z,100351.88
2023-03-12T14:59:39.892Z,100346.44
2023-03-12T15:02:19.333Z,100329.06
2023-03-12T15:04:47.405Z,100324.31
2023-03-12T15:07:21.314Z,100320.19
2023-03-12T15:09:50.829Z,100318.78
2023-03-12T15:12:48.327Z,100312.91
2023-03-12T15:15:36.030Z,100292.38
2023-03-12T15:18:13.861Z,100288.84
2023-03-12T15:20:40.882Z,100291.44
2023-03-12T15:23:09.916Z,100294.25
2023-03-12T15:25:36.644Z,100297.69
2023-03-12T15:28:05.432Z,100293.13
2023-03-12T15:30:33.227Z,100290.81
2023-03-12T15:33:09.851Z,100290.13
2023-03-12T15:35:59.218Z,100285.50
2023-03-12T15:38:26.693Z,100278.22
2023-03-12T15:40:56.346Z,100287.88
2023-03-12T15:43:25.824Z,100288.69
2023-03-12T15:46:07.082Z,100283.47
2023-03-12T15:48:37.894Z,100274.25
2023-03-12T15:51:13.852Z,100272.56
2023-03-12T15:53:40.677Z,100264.69
2023-03-12T15:56:22.285Z,100267.78
2023-03-12T15:59:00.942Z,100264.69
2023-03-12T16:01:28.293Z,100268.63
2023-03-12T16:03:55.754Z,100260.47
2023-03-12T16:06:26.136Z,100253.78
2023-03-12T16:09:06.191Z,100254.41
2023-03-12T16:11:36.804Z,100254.63
2023-03-12T16:14:21.725Z,100248.69
2023-03-12T16:16:48.490Z,100248.78
2023-03-12T16:19:17.585Z,100246.28
2023-03-12T16:21:44.593Z,100248.94
2023-03-12T16:24:12.055Z,100248.66
2023-03-12T16:26:48.474Z,100234.75
2023-03-12T16:29:17.242Z,100234.97
2023-03-12T16:31:44.572Z,100239.13
2023-03-12T16:34:13.193Z,100229.84
2023-03-12T16:36:39.800Z,100223.69
2023-03-12T16:39:06.448Z,100211.66
2023-03-12T16:41:33.118Z,100203.88
2023-03-12T16:44:00.610Z,100206.06
2023-03-12T16:46:32.121Z,100203.69
2023-03-12T16:48:59.656Z,100215.22
2023-03-12T16:51:28.465Z,100221.53
2023-03-12T16:54:08.426Z,100220.91
2023-03-12T16:56:37.320Z,100217.75
2023-03-12T16:59:07.403Z,100216.75
2023-03-12T17:01:35.805Z,100219.97
2023-03-12T17:04:03.563Z,100227.56
2023-03-12T17:06:30.660Z,100209.00
2023-03-12T17:08:57.540Z,100215.22
2023-03-12T17:11:27.940Z,100210.81
2023-03-12T17:13:58.714Z,100205.66
2023-03-12T17:16:25.982Z,100206.25
2023-03-12T17:18:52.895Z,100215.28
2023-03-12T17:21:21.004Z,100219.03
2023-03-12T17:23:50.313Z,100222.56
2023-03-12T17:26:18.502Z,100221.84
2023-03-12T17:28:45.237Z,100211.97
2023-03-12T17:31:11.917Z,100205.44
2023-03-12T17:33:38.739Z,100201.63
2023-03-12T17:36:08.686Z,100192.72
2023-03-12T17:38:36.200Z,100201.00
2023-03-12T17:41:09.441Z,100193.88
2023-03-12T17:43:38.288Z,100195.28
2023-03-12T17:46:06.378Z,100191.81
2023-03-12T17:48:33.083Z,100200.84
2023-03-12T17:50:59.963Z,100200.28
2023-03-12T17:53:26.726Z,100194.53
2023-03-12T17:55:53.333Z,100195.63
2023-03-12T17:58:19.907Z,100193.56
2023-03-12T18:00:46.556Z,100191.34
2023-03-12T18:03:13.172Z,100197.38
2023-03-12T18:05:42.984Z,100192.72
2023-03-12T18:08:10.749Z,100191.63
2023-03-12T18:10:40.209Z,100188.44
2023-03-12T18:13:06.775Z,100189.41
2023-03-12T18:15:33.411Z,100175.78
2023-03-12T18:18:01.063Z,100180.25
2023-03-12T18:20:37.699Z,100172.94
2023-03-12T18:23:04.762Z,100176.66
2023-03-12T18:25:31.343Z,100168.25
2023-03-12T18:27:57.875Z,100171.66
2023-03-12T18:30:24.474Z,100174.84
2023-03-12T18:32:51.080Z,100164.75
2023-03-12T18:35:17.964Z,100166.75
2023-03-12T18:37:46.025Z,100173.72
2023-03-12T18:40:13.083Z,100163.00
2023-03-12T18:42:44.294Z,100171.13
2023-03-12T18:45:12.362Z,100162.16
2023-03-12T18:47:39.644Z,100157.69
2023-03-12T18:50:07.713Z,100156.03
2023-03-12T18:52:34.790Z,100154.47
2023-03-12T18:55:01.746Z,100148.06
2023-03-12T18:57:28.327Z,100144.59
2023-03-12T18:59:55.134Z,100142.88
2023-03-12T19:02:21.694Z,100140.38
2023-03-12T19:04:48.345Z,100132.56
2023-03-12T19:07:15.005Z,100145.94
2023-03-12T19:09:41.568Z,100133.38
2023-03-12T19:12:08.147Z,100138.38
2023-03-12T19:14:34.770Z,100127.19
2023-03-12T19:17:01.361Z,100114.22
2023-03-12T19:19:28.186Z,100115.97
2023-03-12T19:21:57.237Z,100111.63
2023-03-12T19:24:24.101Z,100113.97
2023-03-12T19:26:50.698Z,100104.28
2023-03-12T19:29:17.340Z,100109.09
2023-03-12T19:31:44.021Z,100106.22
2023-03-12T19:34:10.610Z,100106.88
2023-03-12T19:36:37.231Z,100109.31
2023-03-12T19:39:09.142Z,100117.72
2023-03-12T19:41:40.720Z,100117.84
2023-03-12T19:44:07.404Z,100109.97
2023-03-12T19:46:34.036Z,100108.28
2023-03-12T19:49:00.663Z,100099.81
2023-03-12T19:51:27.229Z,100111.78
2023-03-12T19:53:53.850Z,100113.13
2023-03-12T19:56:21.135Z,100105.22
2023-03-12T19:58:48.244Z,100118.34
2023-03-12T20:01:14.843Z,100115.56
2023-03-12T20:03:43.910Z,100098.44
2023-03-12T20:06:12.944Z,100123.13
2023-03-12T20:08:39.533Z,100139.34
2023-03-12T20:11:10.335Z,100126.06
2023-03-12T20:13:39.913Z,100107.84
2023-03-12T20:16:07.749Z,100111.56
2023-03-12T20:18:34.652Z,100124.22
2023-03-12T20:21:01.317Z,100105.28
2023-03-12T20:23:27.910Z,100100.72
2023-03-12T20:25:54.572Z,100115.41
2023-03-12T20:28:21.165Z,100114.56
2023-03-12T20:30:48.578Z,100112.06
2023-03-12T20:33:15.570Z,100112.84
2023-03-12T20:35:42.330Z,100108.00
2023-03-12T20:38:09.260Z,100104.06
2023-03-12T20:40:36.419Z,100086.59
2023-03-12T20:43:05.784Z,100084.75
2023-03-12T20:45:33.662Z,100084.88
2023-03-12T20:48:00.651Z,100088.28
2023-03-12T20:50:28.181Z,100100.22
2023-03-12T20:52:54.828Z,100101.41
2023-03-12T20:55:21.728Z,100103.56
2023-03-12T20:57:49.056Z,100111.19
2023-03-12T21:00:16.020Z,100123.31
2023-03-12T21:02:42.750Z,100123.84
2023-03-12T21:05:11.350Z,100114.88
2023-03-12T21:07:38.036Z,100112.38
2023-03-12T21:10:05.200Z,100112.88
2023-03-12T21:12:31.995Z,100115.28
2023-03-12T21:15:06.415Z,100114.44
2023-03-12T21:17:34.730Z,100120.94
2023-03-12T21:20:03.219Z,100121.81
2023-03-12T21:22:31.576Z,100116.38
2023-03-12T21:24:58.468Z,100124.50
2023-03-12T21:27:25.033Z,100120.00
2023-03-12T21:29:52.846Z,100104.25
2023-03-12T21:32:20.867Z,100101.41
2023-03-12T21:34:47.602Z,100104.78
2023-03-12T21:37:14.732Z,100106.75
2023-03-12T21:39:41.399Z,100087.69
2023-03-12T21:42:08.298Z,100088.69
2023-03-12T21:44:36.615Z,100092.31
2023-03-12T21:47:06.201Z,100080.44
2023-03-12T21:49:34.849Z,100078.63
2023-03-12T21:52:03.466Z,100084.63
2023-03-12T21:54:34.594Z,100087.81
2023-03-12T21:57:03.032Z,100092.03
2023-03-12T21:59:30.158Z,100092.84
2023-03-12T22:01:57.092Z,100096.75
2023-03-12T22:04:24.057Z,100104.50
2023-03-12T22:06:51.122Z,100101.66
2023-03-12T22:09:18.078Z,100104.59
2023-03-12T22:11:44.672Z,100092.31
2023-03-12T22:14:11.248Z,100094.56
2023-03-12T22:16:38.043Z,100092.91
2023-03-12T22:19:04.726Z,100099.06
2023-03-12T22:21:31.306Z,100095.56
2023-03-12T22:23:58.149Z,100080.38
2023-03-12T22:26:25.580Z,100085.19
2023-03-12T22:28:54.359Z,100091.53
2023-03-12T22:31:22.952Z,100096.75
2023-03-12T22:33:50.123Z,100099.25
2023-03-12T22:36:18.086Z,100090.53
2023-03-12T22:38:45.107Z,100080.84
2023-03-12T22:41:23.673Z,100086.88
2023-03-12T22:43:52.016Z,100085.81
2023-03-12T22:46:20.194Z,100090.09
2023-03-12T22:48:51.502Z,100085.81
2023-03-12T22:51:18.106Z,100078.63
2023-03-12T22:53:44.691Z,100073.16
2023-03-12T22:56:12.795Z,100077.03
2023-03-12T22:58:39.953Z,100079.81
2023-03-12T23:01:20.724Z,100077.63
2023-03-12T23:03:48.239Z,100071.69
2023-03-12T23:06:18.714Z,100070.78
2023-03-12T23:08:47.577Z,100080.16
2023-03-12T23:11:15.547Z,100083.50
2023-03-12T23:13:44.639Z,100072.97
2023-03-12T23:16:13.880Z,100062.66
2023-03-12T23:18:40.776Z,100067.84
2023-03-12T23:21:10.929Z,100064.00
2023-03-12T23:23:39.646Z,100070.28
2023-03-12T23:26:06.298Z,100065.84
2023-03-12T23:28:32.894Z,100068.78
2023-03-12T23:31:05.785Z,100068.00
2023-03-12T23:33:34.064Z,100071.38
2023-03-12T23:36:04.363Z,100070.06
2023-03-12T23:38:32.289Z,100070.06
2023-03-12T23:41:08.095Z,100070.78
2023-03-12T23:43:34.900Z,100067.03
2023-03-12T23:46:03.233Z,100073.31
2023-03-12T23:48:31.874Z,100067.78
2023-03-12T23:51:09.604Z,100068.19
2023-03-12T23:53:37.463Z,100058.06
2023-03-12T23:56:07.091Z,100066.50
2023-03-12T23:58:35.587Z,100060.41
